Terminal Aerodrome Forecast
Issued by NWS

Home | Current Version | Previous Version | Graphics & Text | Print | Product List | Glossary On
Versions: 1 2 3 4 5 6 7 8 9 10 11 12 13 14 15
000
FTUS43 KUNR 242300
TAFGCC
TAF
KGCC 242320Z 2500/2524 22015KT P6SM BKN100 OVC200
     FM250400 VRB06KT P6SM BKN050
     FM250900 36011KT P6SM OVC012
     FM251200 36019KT 1SM -SN VV006=

USA.gov is the U.S. government's official web portal to all federal, state and local government web resources and services.